sensor_id;sensor_type;location;lat;lon;timestamp;P1;durP1;ratioP1;P2;durP2;ratioP2
78131;SDS011;67381;47.672;9.380;2024-02-14T00:00:54;8.52;;;4.25;;
78131;SDS011;67381;47.672;9.380;2024-02-14T00:03:22;7.35;;;4.47;;
78131;SDS011;67381;47.672;9.380;2024-02-14T00:05:50;7.05;;;4.55;;
78131;SDS011;67381;47.672;9.380;2024-02-14T00:08:19;7.60;;;4.47;;
78131;SDS011;67381;47.672;9.380;2024-02-14T00:10:46;9.80;;;5.13;;
78131;SDS011;67381;47.672;9.380;2024-02-14T00:13:15;8.70;;;5.25;;
78131;SDS011;67381;47.672;9.380;2024-02-14T00:15:45;6.70;;;4.57;;
78131;SDS011;67381;47.672;9.380;2024-02-14T00:18:13;8.38;;;4.15;;
78131;SDS011;67381;47.672;9.380;2024-02-14T00:20:40;6.35;;;4.53;;
78131;SDS011;67381;47.672;9.380;2024-02-14T00:23:07;9.55;;;4.57;;
78131;SDS011;67381;47.672;9.380;2024-02-14T00:25:34;11.73;;;5.95;;
78131;SDS011;67381;47.672;9.380;2024-02-14T00:28:01;7.85;;;5.28;;
78131;SDS011;67381;47.672;9.380;2024-02-14T00:30:30;8.20;;;4.65;;
78131;SDS011;67381;47.672;9.380;2024-02-14T00:33:23;5.72;;;3.65;;
78131;SDS011;67381;47.672;9.380;2024-02-14T00:35:50;6.93;;;4.38;;
78131;SDS011;67381;47.672;9.380;2024-02-14T00:38:17;6.60;;;3.90;;
78131;SDS011;67381;47.672;9.380;2024-02-14T00:40:44;7.47;;;4.85;;
78131;SDS011;67381;47.672;9.380;2024-02-14T00:43:11;7.47;;;4.78;;
78131;SDS011;67381;47.672;9.380;2024-02-14T00:45:39;7.97;;;4.68;;
78131;SDS011;67381;47.672;9.380;2024-02-14T00:48:06;7.47;;;4.10;;
78131;SDS011;67381;47.672;9.380;2024-02-14T00:50:34;10.07;;;4.93;;
78131;SDS011;67381;47.672;9.380;2024-02-14T00:53:01;7.03;;;4.15;;
78131;SDS011;67381;47.672;9.380;2024-02-14T00:55:28;8.02;;;4.32;;
78131;SDS011;67381;47.672;9.380;2024-02-14T00:57:55;7.25;;;4.32;;
78131;SDS011;67381;47.672;9.380;2024-02-14T01:00:22;7.00;;;3.92;;
78131;SDS011;67381;47.672;9.380;2024-02-14T01:02:49;9.38;;;5.32;;
78131;SDS011;67381;47.672;9.380;2024-02-14T01:05:16;12.13;;;5.28;;
78131;SDS011;67381;47.672;9.380;2024-02-14T01:07:43;9.68;;;4.28;;
78131;SDS011;67381;47.672;9.380;2024-02-14T01:10:13;7.03;;;4.30;;
78131;SDS011;67381;47.672;9.380;2024-02-14T01:12:40;9.60;;;5.10;;
78131;SDS011;67381;47.672;9.380;2024-02-14T01:15:07;5.53;;;4.13;;
78131;SDS011;67381;47.672;9.380;2024-02-14T01:17:35;8.43;;;5.15;;
78131;SDS011;67381;47.672;9.380;2024-02-14T01:20:02;9.05;;;5.13;;
78131;SDS011;67381;47.672;9.380;2024-02-14T01:22:31;8.23;;;5.25;;
78131;SDS011;67381;47.672;9.380;2024-02-14T01:25:05;6.45;;;3.63;;
78131;SDS011;67381;47.672;9.380;2024-02-14T01:27:33;10.38;;;4.82;;
78131;SDS011;67381;47.672;9.380;2024-02-14T01:30:00;5.88;;;3.50;;
78131;SDS011;67381;47.672;9.380;2024-02-14T01:32:29;10.93;;;5.57;;
78131;SDS011;67381;47.672;9.380;2024-02-14T01:34:56;10.70;;;5.35;;
78131;SDS011;67381;47.672;9.380;2024-02-14T01:37:23;8.23;;;3.90;;
78131;SDS011;67381;47.672;9.380;2024-02-14T01:39:51;7.07;;;4.95;;
78131;SDS011;67381;47.672;9.380;2024-02-14T01:42:18;6.90;;;4.72;;
78131;SDS011;67381;47.672;9.380;2024-02-14T01:44:45;8.30;;;4.43;;
78131;SDS011;67381;47.672;9.380;2024-02-14T01:47:12;7.32;;;4.53;;
78131;SDS011;67381;47.672;9.380;2024-02-14T01:49:39;7.75;;;4.68;;
78131;SDS011;67381;47.672;9.380;2024-02-14T01:52:11;7.40;;;3.70;;
78131;SDS011;67381;47.672;9.380;2024-02-14T01:54:38;8.85;;;4.90;;
78131;SDS011;67381;47.672;9.380;2024-02-14T01:57:05;9.07;;;5.00;;
78131;SDS011;67381;47.672;9.380;2024-02-14T01:59:33;7.18;;;4.45;;
78131;SDS011;67381;47.672;9.380;2024-02-14T02:02:01;7.07;;;3.67;;
78131;SDS011;67381;47.672;9.380;2024-02-14T02:04:28;7.35;;;5.07;;
78131;SDS011;67381;47.672;9.380;2024-02-14T02:06:55;7.55;;;4.80;;
78131;SDS011;67381;47.672;9.380;2024-02-14T02:09:23;6.40;;;4.70;;
78131;SDS011;67381;47.672;9.380;2024-02-14T02:11:50;7.30;;;5.05;;
78131;SDS011;67381;47.672;9.380;2024-02-14T02:14:38;9.05;;;4.70;;
78131;SDS011;67381;47.672;9.380;2024-02-14T02:17:26;8.05;;;4.88;;
78131;SDS011;67381;47.672;9.380;2024-02-14T02:20:13;10.23;;;4.82;;
78131;SDS011;67381;47.672;9.380;2024-02-14T02:22:45;6.93;;;4.97;;
78131;SDS011;67381;47.672;9.380;2024-02-14T02:25:32;7.28;;;3.58;;
78131;SDS011;67381;47.672;9.380;2024-02-14T02:28:14;6.05;;;4.35;;
78131;SDS011;67381;47.672;9.380;2024-02-14T02:30:44;5.95;;;3.58;;
78131;SDS011;67381;47.672;9.380;2024-02-14T02:33:13;7.13;;;4.07;;
78131;SDS011;67381;47.672;9.380;2024-02-14T02:35:41;8.05;;;4.55;;
78131;SDS011;67381;47.672;9.380;2024-02-14T02:38:28;6.80;;;4.43;;
78131;SDS011;67381;47.672;9.380;2024-02-14T02:41:15;9.70;;;3.95;;
78131;SDS011;67381;47.672;9.380;2024-02-14T02:44:03;6.72;;;3.90;;
78131;SDS011;67381;47.672;9.380;2024-02-14T02:47:02;5.75;;;2.88;;
78131;SDS011;67381;47.672;9.380;2024-02-14T02:49:49;6.03;;;3.80;;
78131;SDS011;67381;47.672;9.380;2024-02-14T02:52:36;6.68;;;3.95;;
78131;SDS011;67381;47.672;9.380;2024-02-14T02:55:23;7.53;;;3.53;;
78131;SDS011;67381;47.672;9.380;2024-02-14T02:57:59;6.60;;;4.10;;
78131;SDS011;67381;47.672;9.380;2024-02-14T03:00:26;8.75;;;4.65;;
78131;SDS011;67381;47.672;9.380;2024-02-14T03:03:07;6.38;;;4.00;;
78131;SDS011;67381;47.672;9.380;2024-02-14T03:05:49;5.53;;;3.75;;
78131;SDS011;67381;47.672;9.380;2024-02-14T03:08:25;8.95;;;4.38;;
78131;SDS011;67381;47.672;9.380;2024-02-14T03:11:14;8.43;;;3.90;;
78131;SDS011;67381;47.672;9.380;2024-02-14T03:14:02;6.45;;;3.83;;
78131;SDS011;67381;47.672;9.380;2024-02-14T03:16:49;11.95;;;4.35;;
78131;SDS011;67381;47.672;9.380;2024-02-14T03:19:16;9.13;;;4.97;;
78131;SDS011;67381;47.672;9.380;2024-02-14T03:21:43;8.52;;;4.30;;
78131;SDS011;67381;47.672;9.380;2024-02-14T03:24:12;8.45;;;4.25;;
78131;SDS011;67381;47.672;9.380;2024-02-14T03:26:39;6.18;;;4.47;;
78131;SDS011;67381;47.672;9.380;2024-02-14T03:29:06;7.18;;;4.28;;
78131;SDS011;67381;47.672;9.380;2024-02-14T03:31:33;8.85;;;4.20;;
78131;SDS011;67381;47.672;9.380;2024-02-14T03:34:01;7.03;;;5.00;;
78131;SDS011;67381;47.672;9.380;2024-02-14T03:36:28;7.93;;;4.50;;
78131;SDS011;67381;47.672;9.380;2024-02-14T03:38:57;10.00;;;4.85;;
78131;SDS011;67381;47.672;9.380;2024-02-14T03:41:24;6.28;;;4.20;;
78131;SDS011;67381;47.672;9.380;2024-02-14T03:43:51;8.90;;;4.32;;
78131;SDS011;67381;47.672;9.380;2024-02-14T03:46:21;7.97;;;3.78;;
78131;SDS011;67381;47.672;9.380;2024-02-14T03:48:48;7.18;;;4.28;;
78131;SDS011;67381;47.672;9.380;2024-02-14T03:51:15;7.07;;;4.10;;
78131;SDS011;67381;47.672;9.380;2024-02-14T03:53:43;6.88;;;5.20;;
78131;SDS011;67381;47.672;9.380;2024-02-14T03:56:10;8.65;;;4.70;;
78131;SDS011;67381;47.672;9.380;2024-02-14T03:58:37;7.53;;;4.63;;
78131;SDS011;67381;47.672;9.380;2024-02-14T04:01:04;6.85;;;3.92;;
78131;SDS011;67381;47.672;9.380;2024-02-14T04:03:31;8.57;;;4.55;;
78131;SDS011;67381;47.672;9.380;2024-02-14T04:05:58;8.40;;;5.10;;
78131;SDS011;67381;47.672;9.380;2024-02-14T04:08:25;9.52;;;4.25;;
78131;SDS011;67381;47.672;9.380;2024-02-14T04:10:53;8.23;;;4.70;;
78131;SDS011;67381;47.672;9.380;2024-02-14T04:13:23;6.22;;;4.00;;
78131;SDS011;67381;47.672;9.380;2024-02-14T04:15:50;7.68;;;4.80;;
78131;SDS011;67381;47.672;9.380;2024-02-14T04:18:21;7.68;;;4.70;;
78131;SDS011;67381;47.672;9.380;2024-02-14T04:20:48;8.45;;;4.00;;
78131;SDS011;67381;47.672;9.380;2024-02-14T04:23:15;9.40;;;4.93;;
78131;SDS011;67381;47.672;9.380;2024-02-14T04:25:42;7.20;;;4.65;;
78131;SDS011;67381;47.672;9.380;2024-02-14T04:28:10;7.35;;;4.30;;
78131;SDS011;67381;47.672;9.380;2024-02-14T04:30:38;7.43;;;4.32;;
78131;SDS011;67381;47.672;9.380;2024-02-14T04:33:11;6.95;;;5.90;;
78131;SDS011;67381;47.672;9.380;2024-02-14T04:35:39;7.38;;;4.28;;
78131;SDS011;67381;47.672;9.380;2024-02-14T04:38:06;9.18;;;4.97;;
78131;SDS011;67381;47.672;9.380;2024-02-14T04:40:35;9.82;;;4.63;;
78131;SDS011;67381;47.672;9.380;2024-02-14T04:43:04;7.15;;;4.55;;
78131;SDS011;67381;47.672;9.380;2024-02-14T04:45:32;9.68;;;4.28;;
78131;SDS011;67381;47.672;9.380;2024-02-14T04:48:02;9.93;;;4.18;;
78131;SDS011;67381;47.672;9.380;2024-02-14T04:50:30;8.90;;;5.22;;
78131;SDS011;67381;47.672;9.380;2024-02-14T04:52:58;9.15;;;4.70;;
78131;SDS011;67381;47.672;9.380;2024-02-14T04:55:25;10.18;;;5.60;;
78131;SDS011;67381;47.672;9.380;2024-02-14T04:57:52;7.30;;;4.13;;
78131;SDS011;67381;47.672;9.380;2024-02-14T05:00:19;7.07;;;4.00;;
78131;SDS011;67381;47.672;9.380;2024-02-14T05:02:47;7.40;;;3.90;;
78131;SDS011;67381;47.672;9.380;2024-02-14T05:05:14;7.90;;;4.40;;
78131;SDS011;67381;47.672;9.380;2024-02-14T05:10:20;7.28;;;4.65;;
78131;SDS011;67381;47.672;9.380;2024-02-14T05:12:47;8.77;;;4.30;;
78131;SDS011;67381;47.672;9.380;2024-02-14T05:15:15;5.88;;;4.10;;
78131;SDS011;67381;47.672;9.380;2024-02-14T05:17:42;8.75;;;4.80;;
78131;SDS011;67381;47.672;9.380;2024-02-14T05:20:11;6.93;;;4.03;;
78131;SDS011;67381;47.672;9.380;2024-02-14T05:22:38;10.52;;;4.68;;
78131;SDS011;67381;47.672;9.380;2024-02-14T05:25:05;9.60;;;4.50;;
78131;SDS011;67381;47.672;9.380;2024-02-14T05:27:50;6.40;;;3.97;;
78131;SDS011;67381;47.672;9.380;2024-02-14T05:30:17;4.78;;;3.22;;
78131;SDS011;67381;47.672;9.380;2024-02-14T05:32:50;7.07;;;3.85;;
78131;SDS011;67381;47.672;9.380;2024-02-14T05:35:19;6.00;;;3.20;;
78131;SDS011;67381;47.672;9.380;2024-02-14T05:37:46;8.27;;;4.07;;
78131;SDS011;67381;47.672;9.380;2024-02-14T05:40:16;9.00;;;3.40;;
78131;SDS011;67381;47.672;9.380;2024-02-14T05:42:43;6.25;;;4.40;;
78131;SDS011;67381;47.672;9.380;2024-02-14T05:45:12;7.07;;;4.65;;
78131;SDS011;67381;47.672;9.380;2024-02-14T05:47:39;6.53;;;3.35;;
78131;SDS011;67381;47.672;9.380;2024-02-14T05:50:06;6.03;;;3.58;;
78131;SDS011;67381;47.672;9.380;2024-02-14T05:52:35;6.43;;;4.35;;
78131;SDS011;67381;47.672;9.380;2024-02-14T05:55:03;7.15;;;3.88;;
78131;SDS011;67381;47.672;9.380;2024-02-14T05:57:33;7.43;;;4.25;;
78131;SDS011;67381;47.672;9.380;2024-02-14T06:00:00;9.57;;;4.30;;
78131;SDS011;67381;47.672;9.380;2024-02-14T06:02:37;7.72;;;4.78;;
78131;SDS011;67381;47.672;9.380;2024-02-14T06:05:05;6.95;;;4.15;;
78131;SDS011;67381;47.672;9.380;2024-02-14T06:07:33;5.82;;;3.75;;
78131;SDS011;67381;47.672;9.380;2024-02-14T06:10:00;6.97;;;4.60;;
78131;SDS011;67381;47.672;9.380;2024-02-14T06:12:27;6.78;;;3.63;;
78131;SDS011;67381;47.672;9.380;2024-02-14T06:14:54;7.30;;;3.17;;
78131;SDS011;67381;47.672;9.380;2024-02-14T06:17:21;7.65;;;4.55;;
78131;SDS011;67381;47.672;9.380;2024-02-14T06:19:48;7.18;;;3.75;;
78131;SDS011;67381;47.672;9.380;2024-02-14T06:22:15;6.50;;;4.15;;
78131;SDS011;67381;47.672;9.380;2024-02-14T06:24:42;9.30;;;3.58;;
78131;SDS011;67381;47.672;9.380;2024-02-14T06:27:09;6.53;;;4.20;;
78131;SDS011;67381;47.672;9.380;2024-02-14T06:29:36;7.28;;;3.88;;
78131;SDS011;67381;47.672;9.380;2024-02-14T06:32:03;4.93;;;3.13;;
78131;SDS011;67381;47.672;9.380;2024-02-14T06:34:31;6.10;;;3.85;;
78131;SDS011;67381;47.672;9.380;2024-02-14T06:36:58;7.53;;;3.55;;
78131;SDS011;67381;47.672;9.380;2024-02-14T06:39:25;5.18;;;4.25;;
78131;SDS011;67381;47.672;9.380;2024-02-14T06:41:52;5.82;;;3.72;;
78131;SDS011;67381;47.672;9.380;2024-02-14T06:44:19;5.40;;;3.63;;
78131;SDS011;67381;47.672;9.380;2024-02-14T06:46:46;8.73;;;3.70;;
78131;SDS011;67381;47.672;9.380;2024-02-14T06:49:13;5.88;;;3.63;;
78131;SDS011;67381;47.672;9.380;2024-02-14T06:51:40;6.72;;;4.63;;
78131;SDS011;67381;47.672;9.380;2024-02-14T06:54:07;5.15;;;3.63;;
78131;SDS011;67381;47.672;9.380;2024-02-14T06:56:38;7.85;;;4.00;;
78131;SDS011;67381;47.672;9.380;2024-02-14T06:59:05;9.02;;;4.47;;
78131;SDS011;67381;47.672;9.380;2024-02-14T07:01:32;6.05;;;4.38;;
78131;SDS011;67381;47.672;9.380;2024-02-14T07:03:59;7.80;;;4.55;;
78131;SDS011;67381;47.672;9.380;2024-02-14T07:06:28;7.30;;;4.18;;
78131;SDS011;67381;47.672;9.380;2024-02-14T07:08:55;8.52;;;4.68;;
78131;SDS011;67381;47.672;9.380;2024-02-14T07:11:22;7.10;;;4.90;;
78131;SDS011;67381;47.672;9.380;2024-02-14T07:13:49;9.48;;;3.63;;
78131;SDS011;67381;47.672;9.380;2024-02-14T07:16:16;6.18;;;4.72;;
78131;SDS011;67381;47.672;9.380;2024-02-14T07:18:44;6.55;;;4.28;;
78131;SDS011;67381;47.672;9.380;2024-02-14T07:21:11;6.30;;;4.22;;
78131;SDS011;67381;47.672;9.380;2024-02-14T07:23:38;5.43;;;3.53;;
78131;SDS011;67381;47.672;9.380;2024-02-14T07:26:05;7.55;;;4.32;;
78131;SDS011;67381;47.672;9.380;2024-02-14T07:28:32;6.43;;;3.88;;
78131;SDS011;67381;47.672;9.380;2024-02-14T07:30:59;9.50;;;3.78;;
78131;SDS011;67381;47.672;9.380;2024-02-14T07:33:26;6.55;;;3.88;;
78131;SDS011;67381;47.672;9.380;2024-02-14T07:35:53;6.10;;;4.15;;
78131;SDS011;67381;47.672;9.380;2024-02-14T07:38:21;7.07;;;4.43;;
78131;SDS011;67381;47.672;9.380;2024-02-14T07:40:49;9.13;;;4.57;;
78131;SDS011;67381;47.672;9.380;2024-02-14T07:43:23;6.20;;;3.92;;
78131;SDS011;67381;47.672;9.380;2024-02-14T07:45:50;5.88;;;3.67;;
78131;SDS011;67381;47.672;9.380;2024-02-14T07:48:17;9.52;;;3.95;;
78131;SDS011;67381;47.672;9.380;2024-02-14T07:50:44;7.80;;;3.58;;
78131;SDS011;67381;47.672;9.380;2024-02-14T07:53:11;6.72;;;3.90;;
78131;SDS011;67381;47.672;9.380;2024-02-14T07:55:38;11.90;;;3.83;;
78131;SDS011;67381;47.672;9.380;2024-02-14T07:58:06;8.65;;;4.18;;
78131;SDS011;67381;47.672;9.380;2024-02-14T08:00:33;5.03;;;3.92;;
78131;SDS011;67381;47.672;9.380;2024-02-14T08:03:00;5.82;;;3.72;;
78131;SDS011;67381;47.672;9.380;2024-02-14T08:05:30;7.00;;;3.50;;
78131;SDS011;67381;47.672;9.380;2024-02-14T08:07:57;8.45;;;3.80;;
78131;SDS011;67381;47.672;9.380;2024-02-14T08:10:24;8.02;;;3.55;;
78131;SDS011;67381;47.672;9.380;2024-02-14T08:12:51;6.82;;;4.25;;
78131;SDS011;67381;47.672;9.380;2024-02-14T08:15:18;5.63;;;3.38;;
78131;SDS011;67381;47.672;9.380;2024-02-14T08:17:47;9.43;;;3.53;;
78131;SDS011;67381;47.672;9.380;2024-02-14T08:20:15;6.38;;;3.47;;
78131;SDS011;67381;47.672;9.380;2024-02-14T08:22:53;4.60;;;3.63;;
78131;SDS011;67381;47.672;9.380;2024-02-14T08:25:20;10.07;;;3.25;;
78131;SDS011;67381;47.672;9.380;2024-02-14T08:27:47;7.95;;;3.30;;
78131;SDS011;67381;47.672;9.380;2024-02-14T08:30:14;9.35;;;3.10;;
78131;SDS011;67381;47.672;9.380;2024-02-14T08:32:42;8.68;;;4.05;;
78131;SDS011;67381;47.672;9.380;2024-02-14T08:35:09;11.27;;;3.92;;
78131;SDS011;67381;47.672;9.380;2024-02-14T08:37:36;6.50;;;3.45;;
78131;SDS011;67381;47.672;9.380;2024-02-14T08:40:05;6.43;;;3.30;;
78131;SDS011;67381;47.672;9.380;2024-02-14T08:42:33;8.70;;;3.88;;
78131;SDS011;67381;47.672;9.380;2024-02-14T08:45:00;8.35;;;4.80;;
78131;SDS011;67381;47.672;9.380;2024-02-14T08:47:27;7.85;;;4.07;;
78131;SDS011;67381;47.672;9.380;2024-02-14T08:49:55;10.70;;;3.80;;
78131;SDS011;67381;47.672;9.380;2024-02-14T08:52:22;10.23;;;3.95;;
78131;SDS011;67381;47.672;9.380;2024-02-14T08:54:49;9.23;;;3.83;;
78131;SDS011;67381;47.672;9.380;2024-02-14T08:57:17;5.90;;;4.35;;
78131;SDS011;67381;47.672;9.380;2024-02-14T08:59:45;7.03;;;3.25;;
78131;SDS011;67381;47.672;9.380;2024-02-14T09:02:16;9.50;;;4.03;;
78131;SDS011;67381;47.672;9.380;2024-02-14T09:04:43;7.40;;;3.78;;
78131;SDS011;67381;47.672;9.380;2024-02-14T09:07:11;4.00;;;2.75;;
78131;SDS011;67381;47.672;9.380;2024-02-14T09:09:38;5.93;;;2.92;;
78131;SDS011;67381;47.672;9.380;2024-02-14T09:12:06;4.60;;;2.70;;
78131;SDS011;67381;47.672;9.380;2024-02-14T09:14:33;3.80;;;2.42;;
78131;SDS011;67381;47.672;9.380;2024-02-14T09:17:00;4.97;;;2.60;;
78131;SDS011;67381;47.672;9.380;2024-02-14T09:19:27;7.22;;;3.15;;
78131;SDS011;67381;47.672;9.380;2024-02-14T09:21:55;4.45;;;3.50;;
78131;SDS011;67381;47.672;9.380;2024-02-14T09:24:22;6.18;;;2.83;;
78131;SDS011;67381;47.672;9.380;2024-02-14T09:26:49;4.28;;;3.03;;
78131;SDS011;67381;47.672;9.380;2024-02-14T09:29:16;10.88;;;3.15;;
78131;SDS011;67381;47.672;9.380;2024-02-14T09:31:43;5.13;;;2.58;;
78131;SDS011;67381;47.672;9.380;2024-02-14T09:34:14;3.90;;;2.50;;
78131;SDS011;67381;47.672;9.380;2024-02-14T09:36:43;6.03;;;2.75;;
78131;SDS011;67381;47.672;9.380;2024-02-14T09:39:10;5.78;;;2.20;;
78131;SDS011;67381;47.672;9.380;2024-02-14T09:41:37;9.27;;;3.38;;
78131;SDS011;67381;47.672;9.380;2024-02-14T09:44:07;7.38;;;2.55;;
78131;SDS011;67381;47.672;9.380;2024-02-14T09:46:38;4.57;;;2.13;;
78131;SDS011;67381;47.672;9.380;2024-02-14T09:49:05;11.50;;;4.15;;
78131;SDS011;67381;47.672;9.380;2024-02-14T09:51:32;6.78;;;3.35;;
78131;SDS011;67381;47.672;9.380;2024-02-14T09:54:00;7.05;;;3.10;;
78131;SDS011;67381;47.672;9.380;2024-02-14T09:56:29;5.38;;;2.58;;
78131;SDS011;67381;47.672;9.380;2024-02-14T09:58:56;6.53;;;3.38;;
78131;SDS011;67381;47.672;9.380;2024-02-14T10:01:24;6.20;;;1.92;;
78131;SDS011;67381;47.672;9.380;2024-02-14T10:03:51;6.30;;;2.35;;
78131;SDS011;67381;47.672;9.380;2024-02-14T10:06:18;6.63;;;2.20;;
78131;SDS011;67381;47.672;9.380;2024-02-14T10:08:49;7.40;;;1.98;;
78131;SDS011;67381;47.672;9.380;2024-02-14T10:11:18;4.32;;;2.30;;
78131;SDS011;67381;47.672;9.380;2024-02-14T10:13:48;8.13;;;2.35;;
78131;SDS011;67381;47.672;9.380;2024-02-14T10:16:17;5.15;;;2.10;;
78131;SDS011;67381;47.672;9.380;2024-02-14T10:18:46;5.68;;;2.30;;
78131;SDS011;67381;47.672;9.380;2024-02-14T10:21:16;5.93;;;2.78;;
78131;SDS011;67381;47.672;9.380;2024-02-14T10:23:45;3.92;;;1.50;;
78131;SDS011;67381;47.672;9.380;2024-02-14T10:26:13;4.63;;;2.20;;
78131;SDS011;67381;47.672;9.380;2024-02-14T10:28:41;5.45;;;2.10;;
78131;SDS011;67381;47.672;9.380;2024-02-14T10:31:12;6.40;;;2.53;;
78131;SDS011;67381;47.672;9.380;2024-02-14T10:33:40;3.38;;;1.67;;
78131;SDS011;67381;47.672;9.380;2024-02-14T10:36:08;5.35;;;2.22;;
78131;SDS011;67381;47.672;9.380;2024-02-14T10:38:38;5.28;;;1.83;;
78131;SDS011;67381;47.672;9.380;2024-02-14T10:41:06;4.93;;;1.90;;
78131;SDS011;67381;47.672;9.380;2024-02-14T10:43:35;12.15;;;2.90;;
78131;SDS011;67381;47.672;9.380;2024-02-14T10:46:04;6.95;;;2.30;;
78131;SDS011;67381;47.672;9.380;2024-02-14T10:48:34;4.47;;;2.13;;
78131;SDS011;67381;47.672;9.380;2024-02-14T10:51:05;5.82;;;2.05;;
78131;SDS011;67381;47.672;9.380;2024-02-14T10:53:33;6.32;;;1.73;;
78131;SDS011;67381;47.672;9.380;2024-02-14T10:56:01;5.60;;;2.28;;
78131;SDS011;67381;47.672;9.380;2024-02-14T10:58:29;3.28;;;1.70;;
78131;SDS011;67381;47.672;9.380;2024-02-14T11:00:57;4.80;;;1.92;;
78131;SDS011;67381;47.672;9.380;2024-02-14T11:03:25;4.65;;;1.33;;
78131;SDS011;67381;47.672;9.380;2024-02-14T11:05:53;2.60;;;1.65;;
78131;SDS011;67381;47.672;9.380;2024-02-14T11:08:20;3.72;;;1.55;;
78131;SDS011;67381;47.672;9.380;2024-02-14T11:10:55;3.88;;;1.45;;
78131;SDS011;67381;47.672;9.380;2024-02-14T11:13:26;3.67;;;1.50;;
78131;SDS011;67381;47.672;9.380;2024-02-14T11:15:55;9.52;;;1.60;;
78131;SDS011;67381;47.672;9.380;2024-02-14T11:18:26;4.78;;;1.65;;
78131;SDS011;67381;47.672;9.380;2024-02-14T11:20:53;9.00;;;1.85;;
78131;SDS011;67381;47.672;9.380;2024-02-14T11:23:21;2.70;;;1.33;;
78131;SDS011;67381;47.672;9.380;2024-02-14T11:25:50;3.53;;;1.80;;
78131;SDS011;67381;47.672;9.380;2024-02-14T11:28:18;4.00;;;1.48;;
78131;SDS011;67381;47.672;9.380;2024-02-14T11:30:50;4.38;;;1.10;;
78131;SDS011;67381;47.672;9.380;2024-02-14T11:33:18;2.72;;;1.40;;
78131;SDS011;67381;47.672;9.380;2024-02-14T11:35:47;4.90;;;1.45;;
78131;SDS011;67381;47.672;9.380;2024-02-14T11:38:14;4.72;;;1.70;;
78131;SDS011;67381;47.672;9.380;2024-02-14T11:40:41;3.10;;;1.65;;
78131;SDS011;67381;47.672;9.380;2024-02-14T11:43:18;4.38;;;1.52;;
78131;SDS011;67381;47.672;9.380;2024-02-14T11:45:47;3.25;;;1.63;;
78131;SDS011;67381;47.672;9.380;2024-02-14T11:48:16;2.13;;;1.20;;
78131;SDS011;67381;47.672;9.380;2024-02-14T11:50:44;3.05;;;1.65;;
78131;SDS011;67381;47.672;9.380;2024-02-14T11:53:12;4.18;;;1.88;;
78131;SDS011;67381;47.672;9.380;2024-02-14T11:55:40;5.20;;;1.63;;
78131;SDS011;67381;47.672;9.380;2024-02-14T11:58:10;4.60;;;1.70;;
78131;SDS011;67381;47.672;9.380;2024-02-14T12:00:38;5.57;;;1.90;;
78131;SDS011;67381;47.672;9.380;2024-02-14T12:03:07;4.57;;;1.80;;
78131;SDS011;67381;47.672;9.380;2024-02-14T12:05:36;3.08;;;1.67;;
78131;SDS011;67381;47.672;9.380;2024-02-14T12:08:06;5.90;;;2.00;;
78131;SDS011;67381;47.672;9.380;2024-02-14T12:10:34;4.32;;;1.33;;
78131;SDS011;67381;47.672;9.380;2024-02-14T12:13:11;3.40;;;1.83;;
78131;SDS011;67381;47.672;9.380;2024-02-14T12:15:41;5.05;;;1.85;;
78131;SDS011;67381;47.672;9.380;2024-02-14T12:18:09;4.40;;;1.88;;
78131;SDS011;67381;47.672;9.380;2024-02-14T12:20:37;3.55;;;2.20;;
78131;SDS011;67381;47.672;9.380;2024-02-14T12:23:04;5.43;;;2.65;;
78131;SDS011;67381;47.672;9.380;2024-02-14T12:25:34;8.95;;;2.20;;
78131;SDS011;67381;47.672;9.380;2024-02-14T12:28:01;5.25;;;1.80;;
78131;SDS011;67381;47.672;9.380;2024-02-14T12:30:47;5.57;;;2.08;;
78131;SDS011;67381;47.672;9.380;2024-02-14T12:33:24;3.40;;;1.95;;
78131;SDS011;67381;47.672;9.380;2024-02-14T12:35:52;5.05;;;2.10;;
78131;SDS011;67381;47.672;9.380;2024-02-14T12:38:21;6.18;;;2.08;;
78131;SDS011;67381;47.672;9.380;2024-02-14T12:40:50;3.53;;;1.75;;
78131;SDS011;67381;47.672;9.380;2024-02-14T12:43:17;3.95;;;1.90;;
78131;SDS011;67381;47.672;9.380;2024-02-14T12:45:45;4.85;;;1.75;;
78131;SDS011;67381;47.672;9.380;2024-02-14T12:48:12;6.03;;;2.03;;
78131;SDS011;67381;47.672;9.380;2024-02-14T12:50:40;6.10;;;2.28;;
78131;SDS011;67381;47.672;9.380;2024-02-14T12:53:14;4.68;;;2.97;;
78131;SDS011;67381;47.672;9.380;2024-02-14T12:55:41;7.15;;;2.65;;
78131;SDS011;67381;47.672;9.380;2024-02-14T12:58:08;4.95;;;1.90;;
78131;SDS011;67381;47.672;9.380;2024-02-14T13:00:36;3.38;;;1.48;;
78131;SDS011;67381;47.672;9.380;2024-02-14T13:03:04;5.03;;;2.40;;
78131;SDS011;67381;47.672;9.380;2024-02-14T13:05:32;5.07;;;2.35;;
78131;SDS011;67381;47.672;9.380;2024-02-14T13:07:59;2.38;;;1.58;;
78131;SDS011;67381;47.672;9.380;2024-02-14T13:10:26;5.07;;;2.20;;
78131;SDS011;67381;47.672;9.380;2024-02-14T13:12:53;12.55;;;6.80;;
78131;SDS011;67381;47.672;9.380;2024-02-14T13:15:21;7.03;;;3.90;;
78131;SDS011;67381;47.672;9.380;2024-02-14T13:17:48;3.33;;;1.77;;
78131;SDS011;67381;47.672;9.380;2024-02-14T13:20:16;5.50;;;3.20;;
78131;SDS011;67381;47.672;9.380;2024-02-14T13:22:43;4.05;;;1.85;;
78131;SDS011;67381;47.672;9.380;2024-02-14T13:25:10;5.10;;;2.50;;
78131;SDS011;67381;47.672;9.380;2024-02-14T13:27:37;3.45;;;1.73;;
78131;SDS011;67381;47.672;9.380;2024-02-14T13:30:05;3.65;;;1.80;;
78131;SDS011;67381;47.672;9.380;2024-02-14T13:32:33;4.10;;;1.80;;
78131;SDS011;67381;47.672;9.380;2024-02-14T13:35:00;3.83;;;1.90;;
78131;SDS011;67381;47.672;9.380;2024-02-14T13:37:28;4.10;;;1.45;;
78131;SDS011;67381;47.672;9.380;2024-02-14T13:39:56;4.53;;;2.05;;
78131;SDS011;67381;47.672;9.380;2024-02-14T13:42:23;3.08;;;1.52;;
78131;SDS011;67381;47.672;9.380;2024-02-14T13:44:50;3.55;;;1.80;;
78131;SDS011;67381;47.672;9.380;2024-02-14T13:47:20;4.97;;;1.95;;
78131;SDS011;67381;47.672;9.380;2024-02-14T13:49:47;3.60;;;2.10;;
78131;SDS011;67381;47.672;9.380;2024-02-14T13:52:14;4.07;;;1.65;;
78131;SDS011;67381;47.672;9.380;2024-02-14T13:54:42;3.03;;;1.70;;
78131;SDS011;67381;47.672;9.380;2024-02-14T13:57:09;2.88;;;1.23;;
78131;SDS011;67381;47.672;9.380;2024-02-14T13:59:38;3.20;;;1.80;;
78131;SDS011;67381;47.672;9.380;2024-02-14T14:02:05;4.88;;;1.65;;
78131;SDS011;67381;47.672;9.380;2024-02-14T14:04:32;3.60;;;1.65;;
78131;SDS011;67381;47.672;9.380;2024-02-14T14:07:01;3.90;;;1.73;;
78131;SDS011;67381;47.672;9.380;2024-02-14T14:09:31;4.25;;;1.60;;
78131;SDS011;67381;47.672;9.380;2024-02-14T14:11:59;4.28;;;1.58;;
78131;SDS011;67381;47.672;9.380;2024-02-14T14:14:26;6.07;;;2.17;;
78131;SDS011;67381;47.672;9.380;2024-02-14T14:16:54;9.40;;;2.40;;
78131;SDS011;67381;47.672;9.380;2024-02-14T14:19:21;4.30;;;2.15;;
78131;SDS011;67381;47.672;9.380;2024-02-14T14:21:48;3.90;;;1.40;;
78131;SDS011;67381;47.672;9.380;2024-02-14T14:24:15;5.07;;;2.25;;
78131;SDS011;67381;47.672;9.380;2024-02-14T14:26:42;3.65;;;1.90;;
78131;SDS011;67381;47.672;9.380;2024-02-14T14:29:09;4.00;;;1.80;;
78131;SDS011;67381;47.672;9.380;2024-02-14T14:31:37;4.10;;;2.00;;
78131;SDS011;67381;47.672;9.380;2024-02-14T14:34:04;4.38;;;2.30;;
78131;SDS011;67381;47.672;9.380;2024-02-14T14:36:32;5.32;;;2.00;;
78131;SDS011;67381;47.672;9.380;2024-02-14T14:39:00;2.85;;;1.45;;
78131;SDS011;67381;47.672;9.380;2024-02-14T14:41:27;3.63;;;1.80;;
78131;SDS011;67381;47.672;9.380;2024-02-14T14:43:55;2.30;;;1.52;;
78131;SDS011;67381;47.672;9.380;2024-02-14T14:46:22;3.85;;;1.70;;
78131;SDS011;67381;47.672;9.380;2024-02-14T14:48:50;5.50;;;2.03;;
78131;SDS011;67381;47.672;9.380;2024-02-14T14:51:17;3.42;;;1.83;;
78131;SDS011;67381;47.672;9.380;2024-02-14T14:53:44;4.53;;;1.70;;
78131;SDS011;67381;47.672;9.380;2024-02-14T14:56:11;3.95;;;1.80;;
78131;SDS011;67381;47.672;9.380;2024-02-14T14:58:39;3.40;;;1.85;;
78131;SDS011;67381;47.672;9.380;2024-02-14T15:01:08;4.60;;;2.28;;